This is the latest recevied weather packets stored in our database for station/object SV2BZQ-2. If no packets are shown the sender has not sent any weather packets the latest 10 day(s).
| Time | Temp. | Humidity | Pressure | Rain* | Wind** | Luminosity | Snow |
|---|---|---|---|---|---|---|---|
| 1777216194 | 8.89° C | 87% | 1013.2 hPa | 0 mm | - | 155 W/m² | - |
| 1777215453 | 9.44° C | 84% | 1012.2 hPa | 0 mm | - | 0 W/m² | - |
| 1777214803 | 26.67° C | 48% | 1010.4 hPa | 0 mm | - | 415 W/m² | - |
| 1777212991 | 26.67° C | 50% | 1010.4 hPa | 0 mm | - | 499 W/m² | - |
| 1777212104 | 26.67° C | 52% | 1010.5 hPa | 0 mm | - | 534 W/m² | - |
| 1777211636 | 15° C | 70% | 1012.6 hPa | 0 mm | - | 0 W/m² | - |
| 1777211490 | 27.22° C | 53% | 1010.4 hPa | 0 mm | - | 564 W/m² | - |
| 1777210890 | 27.78° C | 50% | 1010.5 hPa | 0 mm | - | 587 W/m² | - |
| 1777201239 | 26.11° C | 45% | 1011.8 hPa | 0 mm | - | 865 W/m² | - |
| 1777199957 | 25.56° C | 47% | 1012 hPa | 0 mm | - | 840 W/m² | - |
| 1777196699 | 23.89° C | 55% | 1012.4 hPa | 0 mm | - | 833 W/m² | - |
| 1777194536 | 22.22° C | 59% | 1012.6 hPa | 0 mm | - | 793 W/m² | - |
| 1777191833 | 20.56° C | 62% | 1012.9 hPa | 0 mm | - | 707 W/m² | - |
| 1777190994 | 19.44° C | 62% | 1013 hPa | 0 mm | - | 687 W/m² | - |
| 1777189694 | 18.89° C | 66% | 1013.1 hPa | 0 mm | - | 643 W/m² | - |
| 1777189377 | 18.89° C | 67% | 1013.1 hPa | 0 mm | - | 628 W/m² | - |
| 1777189110 | 18.89° C | 67% | 1013.2 hPa | 0 mm | - | 615 W/m² | - |
| 1777185977 | 15.56° C | 81% | 1013.2 hPa | 0 mm | - | 482 W/m² | - |
| 1777185471 | 14.44° C | 83% | 1013.2 hPa | 0 mm | - | 450 W/m² | - |
| 1777185235 | 14.44° C | 84% | 1013.2 hPa | 0 mm | - | 436 W/m² | - |
| 1777179609 | 8.89° C | 87% | 1013.2 hPa | 0 mm | - | 172 W/m² | - |
| 1777176236 | 8.33° C | 87% | 1012.7 hPa | 0 mm | - | 9 W/m² | - |
| 1777174275 | 8.33° C | 86% | 1012.4 hPa | 0 mm | - | 0 W/m² | - |
| 1777170008 | 9.44° C | 84% | 1012.1 hPa | 0 mm | - | 0 W/m² | - |
| 1777169609 | 9.44° C | 84% | 1012 hPa | 0 mm | - | 0 W/m² | - |
* Rain latest hour (hover to see other rain measurements)
** Current wind speed in m/s (hover to see current wind gust speed)